METAR stanice u blizini

 

LYBE - Beograd / Surčin, Srbija
Ažurirano: 23/10/2018 00:00
Mostly Cloudy
Mostly Cloudy
 Pravac vetra Z
Vetar: Z 7 km/h
Temperatura: 11°C
Tačka rose: 10°C
Vlažnost: 94%
Pritisak: 1024 hPa
Oblaci: Mostly Cloudy
Vidljivost: 7 km
Cloud details: Mostly Cloudy 1006 m
2018/10/22 22:00 LYBE 222200Z 26004KT 7000 BKN033 11/10 Q1024 NOSIG
LYBT - Beograd / Batajnica, Srbija
Ažurirano: 23/10/2018 00:00
Mostly Cloudy
Mostly Cloudy
 Pravac vetra Z
Vetar: Z 4 km/h
Temperatura: 11°C
Tačka rose: 10°C
Vlažnost: 94%
Pritisak: 1024 hPa
Oblaci: Mostly Cloudy
Vidljivost: 7 km
Cloud details: Mostly Cloudy 1006 m
2018/10/22 22:00 LYBT 222200Z 26002KT 7000 BKN033 11/10 Q1024 NOSIG
LYVR - Vršac, Srbija
Ažurirano: 23/10/2018 00:00
Mist, Delimično oblačno
Mist, Delimično oblačno
 Pravac vetra SSI
Vetar: SSI 9 km/h
Temperatura: 9°C
Osećaj hladnoće: 7°C
Tačka rose: 9°C
Vlažnost: 100%
Pritisak: 1024 hPa
Pregled: Mist
Oblaci: Partly Cloudy
Vidljivost: 4 km
Cloud details: Partly Cloudy 1219 m
2018/10/22 22:00 LYVR 222200Z 02005KT 4000 BR SCT040 09/09 Q1024 NOSIG
 
LYKV - Lađevci, Srbija
Ažurirano: 23/10/2018 00:00
Oblačno
Oblačno
 Pravac vetra varies
Vetar: varies 4 km/h
Temperatura: 10°C
Tačka rose: 10°C
Vlažnost: 100%
Pritisak: 1024 hPa
Oblaci: Oblačno
Vidljivost: 7 km
Cloud details: Oblačno 518 m
2018/10/22 22:00 LYKV 222200Z VRB02KT 7000 OVC017 10/10 Q1024 NOSIG
LYNI - Niš, Srbija
Ažurirano: 23/10/2018 00:00
Partly Cloudy
Partly Cloudy
 Pravac vetra varies
Vetar: varies 19 km/h
Temperatura: 10°C
Osećaj hladnoće: 7°C
Tačka rose: 8°C
Vlažnost: 88%
Pritisak: 1023 hPa
Oblaci: Partly Cloudy
Vidljivost: 6 km
2018/10/22 22:00 LYNI 222200Z VRB10KT 6000 NSC 10/08 Q1023 NOSIG
BKPR - Priština, Srbija
Ažurirano: 23/10/2018 00:00
Mostly Cloudy
Mostly Cloudy
 Pravac vetra S
Vetar: S 24 km/h
Temperatura: 10°C
Osećaj hladnoće: 7°C
Tačka rose: 6°C
Vlažnost: 76%
Pritisak: 1021 hPa
Oblaci: Mostly Cloudy
Vidljivost: 10 km
Cloud details: Partly Cloudy 1219 m
Mostly Cloudy 1829 m
2018/10/22 22:00 BKPR 222200Z 01013KT 9999 SCT040 BKN060 10/06 Q1021 NOSIG
 
LHPP - Pecs / Pogany, Hungary
Ažurirano: 22/10/2018 18:45
NOT Current
Oblačno
Oblačno
 Pravac vetra SI
Vetar: SI 9 km/h
Temperatura: 12°C
Tačka rose: 7°C
Vlažnost: 72%
Pritisak: 1024 hPa
Oblaci: Oblačno
Vidljivost: 10 km
Cloud details: Oblačno 1006 m
2018/10/22 16:45 LHPP 221645Z 04005KT 9999 OVC033 12/07 Q1024
LHUD - Szeged, Hungary
Ažurirano: 22/10/2018 23:45
Vedro
Vedro
 Pravac vetra ZSZ
Vetar: ZSZ 7 km/h
Temperatura: 10°C
Osećaj hladnoće: 9°C
Tačka rose: 8°C
Vlažnost: 88%
Pritisak: 1024 hPa
Pregled: Vedro
Vidljivost: greater than 10 km
2018/10/22 21:45 LHUD 222145Z 29004KT CAVOK 10/08 Q1024
LRTR - Timisoara, Romania
Ažurirano: 23/10/2018 00:00
Partly Cloudy
Partly Cloudy
 Pravac vetra SZ
Vetar: SZ 7 km/h
Temperatura: 10°C
Osećaj hladnoće: 9°C
Tačka rose: 10°C
Vlažnost: 100%
Pritisak: 1023 hPa
Oblaci: Partly Cloudy
Vidljivost: 6 km
Cloud details: Partly Cloudy 1311 m
2018/10/22 22:00 LRTR 222200Z 32004KT 6000 SCT043 10/10 Q1023
 
LRCV - Craiova, Romania
Ažurirano: 23/10/2018 00:00
Partly Cloudy
Partly Cloudy
 Pravac vetra S
Vetar: S 7 km/h
Temperatura: 7°C
Osećaj hladnoće: 6°C
Tačka rose: 5°C
Vlažnost: 87%
Pritisak: 1022 hPa
Oblaci: Partly Cloudy
Vidljivost: 6 km
2018/10/22 22:00 LRCV 222200Z 36004KT 6000 NSC 07/05 Q1022
LBSF - Sofia, Bulgaria
Ažurirano: 23/10/2018 00:00
Oblačno
Oblačno
 Pravac vetra IJI
Vetar: IJI 9 km/h
Temperatura: 11°C
Tačka rose: 6°C
Vlažnost: 72%
Pritisak: 1022 hPa
Oblaci: Oblačno
Vidljivost: 10 km
Cloud details: Partly Cloudy 1128 m
Oblačno 1615 m
2018/10/22 22:00 LBSF 222200Z 11005KT 9999 SCT037 OVC053 11/06 Q1022 NOSIG
LWSK - Skoplje, Makedonija
Ažurirano: 23/10/2018 00:30
Oblačno
Oblačno
 Pravac vetra calm
Vetar: Tišina
Temperatura: 11°C
Tačka rose: 10°C
Vlažnost: 94%
Pritisak: 1021 hPa
Oblaci: Oblačno
Vidljivost: 7 km
Cloud details: Mostly Cloudy 1615 m
Oblačno 2225 m
2018/10/22 22:30 LWSK 222230Z 00000KT 7000 BKN053 OVC073 11/10 Q1021 NOSIG
 
LYPG - Podgorica, Crna Gora
Ažurirano: 23/10/2018 00:00
Mostly Cloudy
Mostly Cloudy
 Pravac vetra SSI
Vetar: SSI 6 km/h
Temperatura: 16°C
Tačka rose: 9°C
Vlažnost: 63%
Pritisak: 1016 hPa
Oblaci: Mostly Cloudy
Vidljivost: 10 km
Cloud details: Partly Cloudy 1524 m
Mostly Cloudy 2438 m
2018/10/22 22:00 LYPG 222200Z 02003KT 350V050 9999 SCT050 BKN080 16/09 Q1016 NOSIG
LQSA - Sarajevo, Bosna i Hercegovina
Ažurirano: 23/10/2018 00:00
Oblačno
Oblačno
 Pravac vetra ZSZ
Vetar: ZSZ 9 km/h
Temperatura: 8°C
Osećaj hladnoće: 6°C
Tačka rose: 7°C
Vlažnost: 93%
Pritisak: 1024 hPa
Oblaci: Oblačno
Vidljivost: 8 km
Cloud details: Oblačno 640 m
2018/10/22 22:00 LQSA 222200Z 30005KT 8000 OVC021 08/07 Q1024
LDOS - Osijek, Hrvatksa
Ažurirano: 23/10/2018 00:00
Mostly Cloudy
Mostly Cloudy
 Pravac vetra Z
Vetar: Z 7 km/h
Temperatura: 11°C
Tačka rose: 9°C
Vlažnost: 88%
Pritisak: 1025 hPa
Oblaci: Mostly Cloudy
Vidljivost: 10 km
Cloud details: Mostly Cloudy 914 m
2018/10/22 22:00 LDOS 222200Z 28004KT 9999 BKN030 11/09 Q1025